Aviation Digital Data Service (ADDS)

Output produced by METARs form (2225 UTC 24 March 2019)
found at http://www.aviationweather.gov/metar/data/
 
RCTP 242200Z 17005KT 9000 FEW012 BKN017 BKN030 18/17 Q1015 NOSIG RMK A2999
TAF RCTP 241700Z 2418/2524 22005KT 9999 FEW010 BKN032 
     TEMPO 2418/2423 16005KT 4000 RA FEW012 BKN017 BKN035 
     BECMG 2423/2501 FEW010 BKN020 BKN040 
     TEMPO 2501/2507 30005KT 4000 RA SCT008 BKN011 BKN025 
     BECMG 2507/2509 09005KT FEW015 BKN032 
     TEMPO 2514/2520 14005KT 4000 BR FEW006 BKN012 BKN025
       
RCMQ 242210Z 17003KT 1200 R36/P2000 BR SCT004 BKN012 BKN030 18/18 Q1016 NOSIG RMK A3001 APCH CLD SCT004
TAF RCMQ 241700Z 2418/2518 36004KT 1200 BR SCT004 BKN012 BKN021 TX20/2506Z
TN14/2421Z 
     BECMG 2419/2422 0800 FG SCT004 BKN008 BKN016 
     BECMG 2423/2502 4000 BR SCT006 BKN016 BKN030 
     BECMG 2504/2507 34008KT 2400 -RA BR SCT004 BKN010 BKN020 
     BECMG 2512/2515 01004KT 4000 BR FEW006 BKN020 BKN040
       
RCFN 242200Z 35003KT 290V020 9999 FEW030 BKN055 19/16 Q1016 NOSIG RMK A3001
TAF RCFN 241700Z 2418/2518 35005KT 9999 FEW015 BKN032 
     BECMG 2500/2502 12005KT 
     BECMG 2506/2508 01005KT 
     TEMPO 2508/2514 07007KT FEW010 BKN017 BKN035
       
RCKH 242200Z 06003KT 8000 FEW012 SCT080 19/18 Q1015 NOSIG RMK A3000
TAF RCKH 241700Z 2418/2524 35005KT 6000 FEW015 BKN032 
     TEMPO 2418/2424 05005KT 3500 BR FEW010 BKN016 BKN035 
     BECMG 2501/2503 29008KT 
     TEMPO 2503/2509 26012KT 
     BECMG 2509/2511 35005KT 
     TEMPO 2517/2524 4000 BR
       
RCSS 242200Z VRB02KT 9999 FEW012 BKN030 BKN040 18/17 Q1015 NOSIG RMK A2999
TAF RCSS 241700Z 2418/2518 09005KT 9999 FEW010 BKN032 
     TEMPO 2418/2424 5000 RA FEW012 BKN020 BKN040 
     BECMG 2500/2502 30005KT 
     TEMPO 2503/2509 29010KT 5000 RA FEW008 BKN017 BKN030 
     BECMG 2512/2514 09005KT
       
RCNN 242200Z 04003KT 6000 FEW008 SCT025 BKN050 17/16 Q1015 NOSIG RMK A3000
TAF RCNN 241700Z 2418/2518 36004KT 7000 FEW012 BKN050 TX25/2506Z TN16/2420Z 
     TEMPO 2420/2423 5000 BR 
     BECMG 2500/2502 30006KT 3200 BR 
     BECMG 2503/2505 36008KT 6000 
     BECMG 2506/2509 9999